createdAt,value
2023-05-19T00:00:25.474Z,392
2023-05-19T00:01:26.645Z,396
2023-05-19T00:02:24.730Z,398
2023-05-19T00:03:24.449Z,405
2023-05-19T00:04:24.463Z,412
2023-05-19T00:05:24.459Z,409
2023-05-19T00:06:25.202Z,410
2023-05-19T00:07:24.572Z,413
2023-05-19T00:08:24.648Z,405
2023-05-19T00:09:24.404Z,412
2023-05-19T00:10:25.095Z,404
2023-05-19T00:11:24.547Z,406
2023-05-19T00:12:24.400Z,408
2023-05-19T00:13:24.348Z,407
2023-05-19T00:14:24.910Z,410
2023-05-19T00:15:24.624Z,420
2023-05-19T00:16:25.040Z,409
2023-05-19T00:17:24.900Z,401
2023-05-19T00:18:24.687Z,404
2023-05-19T00:19:24.401Z,410
2023-05-19T00:20:25.038Z,409
2023-05-19T00:21:24.452Z,403
2023-05-19T00:22:24.618Z,400
2023-05-19T00:23:24.950Z,404
2023-05-19T00:24:24.432Z,407
2023-05-19T00:25:24.973Z,412
2023-05-19T00:26:24.637Z,415
2023-05-19T00:27:24.428Z,402
2023-05-19T00:29:24.327Z,401
2023-05-19T00:30:25.154Z,404
2023-05-19T00:31:24.552Z,402
2023-05-19T00:32:24.735Z,409
2023-05-19T00:33:24.310Z,399
2023-05-19T00:34:24.554Z,400
2023-05-19T00:35:24.197Z,412
2023-05-19T00:36:24.658Z,406
2023-05-19T00:37:24.431Z,400
2023-05-19T00:38:24.752Z,409
2023-05-19T00:39:24.129Z,416
2023-05-19T00:40:25.034Z,405
2023-05-19T00:41:24.477Z,411
2023-05-19T00:42:24.619Z,416
2023-05-19T00:43:24.542Z,412
2023-05-19T00:44:24.379Z,411
2023-05-19T00:45:24.415Z,423
2023-05-19T00:46:24.863Z,427
2023-05-19T00:47:24.775Z,420
2023-05-19T00:48:24.401Z,411
2023-05-19T00:49:24.544Z,415
2023-05-19T00:50:24.776Z,417
2023-05-19T00:51:24.496Z,412
2023-05-19T00:52:25.261Z,413
2023-05-19T00:53:25.058Z,419
2023-05-19T00:54:25.169Z,421
2023-05-19T00:55:25.094Z,410
2023-05-19T00:56:24.631Z,411
2023-05-19T00:57:24.676Z,409
2023-05-19T00:58:24.606Z,416
2023-05-19T00:59:24.503Z,417
2023-05-19T01:00:25.851Z,420
2023-05-19T01:01:24.936Z,428
2023-05-19T01:02:24.997Z,424
2023-05-19T01:03:24.991Z,428
2023-05-19T01:04:24.791Z,431
2023-05-19T01:05:24.673Z,429
2023-05-19T01:06:24.595Z,425
2023-05-19T01:07:24.505Z,409
2023-05-19T01:08:24.440Z,413
2023-05-19T01:09:25.020Z,412
2023-05-19T01:10:24.819Z,422
2023-05-19T01:11:24.191Z,410
2023-05-19T01:12:24.102Z,415
2023-05-19T01:13:24.508Z,414
2023-05-19T01:14:24.661Z,402
2023-05-19T01:15:24.394Z,404
2023-05-19T01:17:24.954Z,405
2023-05-19T01:18:24.950Z,416
2023-05-19T01:19:24.443Z,408
2023-05-19T01:20:24.339Z,403
2023-05-19T01:21:24.226Z,412
2023-05-19T01:22:24.900Z,414
2023-05-19T01:23:24.753Z,424
2023-05-19T01:24:24.565Z,426
2023-05-19T01:25:24.695Z,420
2023-05-19T01:26:24.416Z,419
2023-05-19T01:27:24.851Z,421
2023-05-19T01:28:24.722Z,419
2023-05-19T01:29:24.508Z,424
2023-05-19T01:30:24.667Z,414
2023-05-19T01:31:24.468Z,405
2023-05-19T01:32:24.534Z,413
2023-05-19T01:34:24.319Z,417
2023-05-19T01:35:24.966Z,407
2023-05-19T01:36:24.608Z,414
2023-05-19T01:37:24.275Z,417
2023-05-19T01:39:24.205Z,415
2023-05-19T01:40:25.006Z,412
2023-05-19T01:41:24.635Z,408
2023-05-19T01:42:24.398Z,406
2023-05-19T01:43:24.632Z,411
2023-05-19T01:44:24.326Z,416
2023-05-19T01:45:24.945Z,412
2023-05-19T01:46:24.822Z,415
2023-05-19T01:47:24.634Z,404
2023-05-19T01:48:24.464Z,407
2023-05-19T01:49:24.898Z,418
2023-05-19T01:50:24.664Z,412
2023-05-19T01:51:24.549Z,414
2023-05-19T01:52:24.172Z,411
2023-05-19T01:54:24.540Z,414
2023-05-19T01:55:25.158Z,416
2023-05-19T01:56:24.806Z,417
2023-05-19T01:57:24.563Z,422
2023-05-19T01:58:24.410Z,412
2023-05-19T01:59:24.150Z,409
2023-05-19T02:00:25.736Z,403
2023-05-19T02:01:24.570Z,406
2023-05-19T02:02:24.594Z,405
2023-05-19T02:03:24.623Z,425
2023-05-19T02:04:24.448Z,416
2023-05-19T02:05:24.688Z,424
2023-05-19T02:06:24.460Z,414
2023-05-19T02:07:29.800Z,420
2023-05-19T02:08:24.441Z,417
2023-05-19T02:09:29.411Z,420
2023-05-19T02:10:24.592Z,422
2023-05-19T02:11:24.313Z,425
2023-05-19T02:14:24.386Z,431
2023-05-19T02:15:24.736Z,426
2023-05-19T02:16:24.681Z,418
2023-05-19T02:17:24.630Z,417
2023-05-19T02:18:24.985Z,412
2023-05-19T02:19:24.955Z,424
2023-05-19T02:20:24.817Z,426
2023-05-19T02:21:24.601Z,421
2023-05-19T02:22:24.498Z,418
2023-05-19T02:23:24.452Z,424
2023-05-19T02:24:24.304Z,426
2023-05-19T02:25:24.425Z,424
2023-05-19T02:26:24.467Z,418
2023-05-19T02:27:24.482Z,422
2023-05-19T02:28:24.646Z,429
2023-05-19T02:29:29.164Z,437
2023-05-19T02:30:24.860Z,424
2023-05-19T02:31:24.613Z,434
2023-05-19T02:32:24.805Z,439
2023-05-19T02:33:24.706Z,432
2023-05-19T02:34:24.698Z,433
2023-05-19T02:35:24.951Z,429
2023-05-19T02:36:24.578Z,431
2023-05-19T02:37:24.378Z,432
2023-05-19T02:38:24.290Z,420
2023-05-19T02:39:24.390Z,414
2023-05-19T02:40:24.524Z,416
2023-05-19T02:41:24.505Z,417
2023-05-19T02:42:24.558Z,428
2023-05-19T02:43:24.541Z,427
2023-05-19T02:44:24.548Z,421
2023-05-19T02:45:24.975Z,420
2023-05-19T02:46:25.054Z,423
2023-05-19T02:47:25.572Z,429
2023-05-19T02:48:25.221Z,431
2023-05-19T02:49:24.687Z,434
2023-05-19T02:50:24.468Z,437
2023-05-19T02:51:24.126Z,439
2023-05-19T02:52:24.736Z,431
2023-05-19T02:53:24.343Z,429
2023-05-19T02:54:24.776Z,430
2023-05-19T02:55:24.596Z,434
2023-05-19T02:56:24.356Z,436
2023-05-19T02:57:24.341Z,443
2023-05-19T02:58:24.250Z,440
2023-05-19T02:59:25.837Z,435
2023-05-19T03:00:25.962Z,432
2023-05-19T03:02:29.908Z,439
2023-05-19T03:03:24.736Z,434
2023-05-19T03:04:25.050Z,445
2023-05-19T03:05:24.997Z,444
2023-05-19T03:06:24.784Z,437
2023-05-19T03:07:24.661Z,435
2023-05-19T03:08:24.493Z,446
2023-05-19T03:09:24.905Z,445
2023-05-19T03:10:24.779Z,430
2023-05-19T03:11:24.498Z,438
2023-05-19T03:12:24.593Z,437
2023-05-19T03:13:24.439Z,440
2023-05-19T03:14:24.552Z,433
2023-05-19T03:16:24.631Z,432
2023-05-19T03:17:24.512Z,431
2023-05-19T03:18:24.799Z,438
2023-05-19T03:19:24.630Z,428
2023-05-19T03:20:24.720Z,419
2023-05-19T03:22:24.566Z,426
2023-05-19T03:23:24.365Z,425
2023-05-19T03:24:24.281Z,438
2023-05-19T03:25:24.628Z,441
2023-05-19T03:26:24.208Z,437
2023-05-19T03:27:24.842Z,434
2023-05-19T03:28:24.538Z,433
2023-05-19T03:29:24.388Z,437
2023-05-19T03:30:24.420Z,438
2023-05-19T03:31:24.401Z,440
2023-05-19T03:32:24.339Z,439
2023-05-19T03:33:24.505Z,427
2023-05-19T03:36:24.592Z,434
2023-05-19T03:37:24.506Z,445
2023-05-19T03:38:25.385Z,446
2023-05-19T03:39:24.920Z,438
2023-05-19T03:40:24.977Z,445
2023-05-19T03:41:24.777Z,446
2023-05-19T03:42:24.441Z,437
2023-05-19T03:43:24.267Z,431
2023-05-19T03:44:24.922Z,429
2023-05-19T03:45:25.030Z,426
2023-05-19T03:46:24.864Z,428
2023-05-19T03:47:25.033Z,444
2023-05-19T03:48:24.948Z,452
2023-05-19T03:49:24.706Z,453
2023-05-19T03:50:24.893Z,451
2023-05-19T03:51:24.639Z,435
2023-05-19T03:52:24.611Z,431
2023-05-19T03:53:24.402Z,424
2023-05-19T03:54:24.600Z,433
2023-05-19T03:55:24.807Z,425
2023-05-19T03:56:24.742Z,440
2023-05-19T03:57:24.610Z,437
2023-05-19T03:58:24.685Z,432
2023-05-19T03:59:24.492Z,410
2023-05-19T04:01:24.735Z,419
2023-05-19T04:02:25.132Z,429
2023-05-19T04:03:24.670Z,428
2023-05-19T04:04:24.956Z,425
2023-05-19T04:05:24.769Z,418
2023-05-19T04:06:24.732Z,433
2023-05-19T04:07:24.725Z,430
2023-05-19T04:08:24.710Z,427
2023-05-19T04:10:24.709Z,427
2023-05-19T04:11:24.433Z,420
2023-05-19T04:12:24.582Z,427
2023-05-19T04:16:24.990Z,427
2023-05-19T04:17:25.236Z,425
2023-05-19T04:18:25.537Z,430
2023-05-19T04:19:24.805Z,432
2023-05-19T04:20:24.781Z,429
2023-05-19T04:21:24.732Z,427
2023-05-19T04:22:24.906Z,417
2023-05-19T04:23:24.864Z,421
2023-05-19T04:24:25.105Z,412
2023-05-19T04:25:25.472Z,416
2023-05-19T04:26:24.735Z,418
2023-05-19T04:27:24.849Z,422
2023-05-19T04:28:24.549Z,429
2023-05-19T04:29:24.603Z,431
2023-05-19T04:30:24.824Z,433
2023-05-19T04:31:24.803Z,437
2023-05-19T04:32:30.097Z,431
2023-05-19T04:33:24.657Z,421
2023-05-19T04:34:24.713Z,423
2023-05-19T04:35:24.833Z,425
2023-05-19T04:37:24.620Z,423
2023-05-19T04:38:24.470Z,424
2023-05-19T04:39:24.301Z,422
2023-05-19T04:40:24.829Z,421
2023-05-19T04:41:24.518Z,428
2023-05-19T04:43:24.451Z,438
2023-05-19T04:44:24.299Z,435
2023-05-19T04:45:25.200Z,441
2023-05-19T04:47:24.690Z,435
2023-05-19T04:49:24.929Z,436
2023-05-19T04:50:24.986Z,424
2023-05-19T04:51:24.881Z,433
2023-05-19T04:54:24.732Z,430
2023-05-19T04:55:24.772Z,439
2023-05-19T04:56:24.664Z,431
2023-05-19T04:58:24.895Z,425
2023-05-19T04:59:24.680Z,427
2023-05-19T05:00:25.351Z,426
2023-05-19T05:01:25.181Z,417
2023-05-19T05:02:24.773Z,426
2023-05-19T05:04:24.784Z,425
2023-05-19T05:05:24.822Z,421
2023-05-19T05:06:24.450Z,418
2023-05-19T05:08:24.714Z,414
2023-05-19T05:09:24.640Z,412
2023-05-19T05:10:24.814Z,415
2023-05-19T05:11:24.621Z,417
2023-05-19T05:12:24.642Z,414
2023-05-19T05:13:24.735Z,421
2023-05-19T05:14:24.636Z,411
2023-05-19T05:15:25.248Z,414
2023-05-19T05:16:24.492Z,408
2023-05-19T05:17:24.661Z,405
2023-05-19T05:18:24.749Z,407
2023-05-19T05:19:24.740Z,408
2023-05-19T05:20:24.887Z,404
2023-05-19T05:21:24.811Z,396
2023-05-19T05:22:24.765Z,380
2023-05-19T05:23:24.771Z,378
2023-05-19T05:24:24.744Z,375
2023-05-19T05:25:24.931Z,396
2023-05-19T05:26:24.776Z,402
2023-05-19T05:27:24.922Z,400
2023-05-19T05:28:24.868Z,390
2023-05-19T05:29:25.075Z,388
2023-05-19T05:30:25.420Z,390
2023-05-19T05:31:24.480Z,392
2023-05-19T05:32:24.553Z,402
2023-05-19T05:33:24.694Z,396
2023-05-19T05:34:24.547Z,390
2023-05-19T05:35:24.569Z,387
2023-05-19T05:36:24.557Z,392
2023-05-19T05:37:24.930Z,390
2023-05-19T05:38:24.793Z,398
2023-05-19T05:39:24.762Z,396
2023-05-19T05:40:24.892Z,392
2023-05-19T05:41:24.769Z,393
2023-05-19T05:42:25.334Z,379
2023-05-19T05:43:24.539Z,380
2023-05-19T05:44:24.606Z,382
2023-05-19T05:46:25.218Z,383
2023-05-19T05:47:25.043Z,389
2023-05-19T05:49:24.648Z,384
2023-05-19T05:50:24.996Z,392
2023-05-19T05:51:24.842Z,393
2023-05-19T05:52:24.762Z,381
2023-05-19T05:53:24.658Z,376
2023-05-19T05:54:24.974Z,377
2023-05-19T05:55:25.182Z,381
2023-05-19T05:56:25.225Z,369
2023-05-19T05:57:25.539Z,372
2023-05-19T05:58:24.645Z,368
2023-05-19T05:59:24.750Z,374
2023-05-19T06:00:25.958Z,371
2023-05-19T06:01:24.843Z,377
2023-05-19T06:02:24.770Z,379
2023-05-19T06:03:24.890Z,368
2023-05-19T06:04:24.958Z,367
2023-05-19T06:05:25.280Z,359
2023-05-19T06:07:24.795Z,367
2023-05-19T06:08:24.771Z,370
2023-05-19T06:09:24.762Z,356
2023-05-19T06:10:24.776Z,351
2023-05-19T06:12:24.719Z,351
2023-05-19T06:13:24.698Z,346
2023-05-19T06:14:24.618Z,355
2023-05-19T06:15:25.012Z,357
2023-05-19T06:16:25.006Z,363
2023-05-19T06:17:25.184Z,354
2023-05-19T06:18:24.548Z,351
2023-05-19T06:19:24.686Z,358
2023-05-19T06:21:24.697Z,362
2023-05-19T06:22:24.634Z,357
2023-05-19T06:23:24.702Z,350
2023-05-19T06:24:24.956Z,356
2023-05-19T06:26:24.670Z,357
2023-05-19T06:27:24.760Z,361
2023-05-19T06:29:24.832Z,351
2023-05-19T06:30:25.163Z,353
2023-05-19T06:32:25.088Z,367
2023-05-19T06:34:24.861Z,359
2023-05-19T06:35:24.881Z,360
2023-05-19T06:37:24.616Z,365
2023-05-19T06:39:24.651Z,361
2023-05-19T06:41:25.164Z,355
2023-05-19T06:43:24.707Z,358
2023-05-19T06:44:24.915Z,345
2023-05-19T06:46:24.883Z,344
2023-05-19T06:48:25.164Z,355
2023-05-19T06:49:24.851Z,358
2023-05-19T06:50:25.353Z,356
2023-05-19T06:51:24.815Z,364
2023-05-19T06:52:25.026Z,365
2023-05-19T06:53:25.019Z,362
2023-05-19T06:54:25.016Z,361
2023-05-19T06:55:25.429Z,364
2023-05-19T06:56:24.732Z,370
2023-05-19T06:58:24.855Z,373
2023-05-19T07:00:25.263Z,359
2023-05-19T07:02:24.951Z,365
2023-05-19T07:03:25.456Z,367
2023-05-19T07:04:24.995Z,369
2023-05-19T07:05:25.188Z,365
2023-05-19T07:06:24.685Z,359
2023-05-19T07:07:25.097Z,353
2023-05-19T07:08:25.035Z,359
2023-05-19T07:09:24.574Z,364
2023-05-19T07:10:25.138Z,361
2023-05-19T07:11:25.018Z,351
2023-05-19T07:12:25.178Z,355
2023-05-19T07:13:26.614Z,354
2023-05-19T07:14:24.881Z,346
2023-05-19T07:15:25.265Z,354
2023-05-19T07:16:24.443Z,356
2023-05-19T07:17:24.972Z,358
2023-05-19T07:18:25.029Z,353
2023-05-19T07:19:38.899Z,348
2023-05-19T07:20:24.799Z,355
2023-05-19T07:21:24.821Z,362
2023-05-19T07:22:24.743Z,355
2023-05-19T07:23:38.855Z,361
2023-05-19T07:24:24.961Z,350
2023-05-19T07:25:25.151Z,349
2023-05-19T07:26:24.882Z,357
2023-05-19T07:27:25.002Z,350
2023-05-19T07:28:25.251Z,346
2023-05-19T07:29:24.966Z,351
2023-05-19T07:30:24.915Z,354
2023-05-19T07:31:24.886Z,347
2023-05-19T07:32:25.161Z,350
2023-05-19T07:33:25.042Z,351
2023-05-19T07:34:25.004Z,356
2023-05-19T07:35:25.321Z,350
2023-05-19T07:36:25.087Z,347
2023-05-19T07:37:24.879Z,345
2023-05-19T07:39:24.681Z,342
2023-05-19T07:40:25.070Z,347
2023-05-19T07:41:24.558Z,344
2023-05-19T07:43:25.254Z,343
2023-05-19T07:44:25.176Z,338
2023-05-19T07:46:25.440Z,343
2023-05-19T07:47:24.706Z,365
2023-05-19T07:48:25.185Z,357
2023-05-19T07:49:24.897Z,356
2023-05-19T07:50:25.440Z,349
2023-05-19T07:51:24.830Z,354
2023-05-19T07:52:25.402Z,357
2023-05-19T07:53:24.936Z,355
2023-05-19T07:54:24.873Z,363
2023-05-19T07:56:30.794Z,348
2023-05-19T07:57:24.908Z,347
2023-05-19T07:58:24.950Z,353
2023-05-19T08:00:25.499Z,347
2023-05-19T08:02:29.985Z,345
2023-05-19T08:04:25.067Z,334
2023-05-19T08:05:24.985Z,342
2023-05-19T08:06:24.907Z,348
2023-05-19T08:07:24.947Z,356
2023-05-19T08:08:25.276Z,362
2023-05-19T08:09:25.229Z,365
2023-05-19T08:10:25.127Z,357
2023-05-19T08:11:25.202Z,352
2023-05-19T08:13:25.208Z,353
2023-05-19T08:14:25.156Z,342
2023-05-19T08:15:24.920Z,345
2023-05-19T08:16:25.042Z,346
2023-05-19T08:17:24.937Z,349
2023-05-19T08:18:24.601Z,346
2023-05-19T08:19:24.790Z,344
2023-05-19T08:20:24.993Z,346
2023-05-19T08:21:24.897Z,343
2023-05-19T08:22:24.435Z,351
2023-05-19T08:23:24.431Z,353
2023-05-19T08:24:24.245Z,337
2023-05-19T08:25:25.073Z,344
2023-05-19T08:26:24.899Z,340
2023-05-19T08:27:24.785Z,337
2023-05-19T08:28:24.516Z,338
2023-05-19T08:29:24.582Z,341
2023-05-19T08:30:25.033Z,347
2023-05-19T08:31:25.486Z,357
2023-05-19T08:32:24.975Z,360
2023-05-19T08:33:25.102Z,349
2023-05-19T08:34:24.992Z,342
2023-05-19T08:35:24.944Z,341
2023-05-19T08:36:24.655Z,340
2023-05-19T08:37:24.730Z,348
2023-05-19T08:38:24.883Z,350
2023-05-19T08:39:24.852Z,357
2023-05-19T08:40:24.943Z,348
2023-05-19T08:42:25.068Z,353
2023-05-19T08:43:24.951Z,343
2023-05-19T08:45:25.029Z,346
2023-05-19T08:46:25.416Z,353
2023-05-19T08:47:24.724Z,352
2023-05-19T08:48:24.755Z,347
2023-05-19T08:49:25.707Z,354
2023-05-19T08:50:25.017Z,356
2023-05-19T08:51:25.534Z,361
2023-05-19T08:52:24.938Z,363
2023-05-19T08:53:33.859Z,357
2023-05-19T08:54:24.785Z,346
2023-05-19T08:55:25.491Z,345
2023-05-19T08:56:24.997Z,351
2023-05-19T08:57:24.616Z,350
2023-05-19T08:58:25.745Z,342
2023-05-19T08:59:25.295Z,345
2023-05-19T09:00:25.774Z,349
2023-05-19T09:01:25.105Z,353
2023-05-19T09:02:24.662Z,346
2023-05-19T09:03:24.494Z,349
2023-05-19T09:04:25.600Z,346
2023-05-19T09:05:25.218Z,342
2023-05-19T09:06:25.222Z,344
2023-05-19T09:07:25.016Z,339
2023-05-19T09:08:24.830Z,348
2023-05-19T09:09:25.299Z,345
2023-05-19T09:10:26.031Z,344
2023-05-19T09:11:24.759Z,333
2023-05-19T09:12:25.245Z,329
2023-05-19T09:13:24.984Z,337
2023-05-19T09:14:25.302Z,332
2023-05-19T09:15:25.203Z,337
2023-05-19T09:16:27.702Z,341
2023-05-19T09:17:25.141Z,343
2023-05-19T09:18:24.896Z,349
2023-05-19T09:19:25.055Z,355
2023-05-19T09:20:25.824Z,363
2023-05-19T09:21:25.243Z,354
2023-05-19T09:22:24.731Z,351
2023-05-19T09:23:25.107Z,352
2023-05-19T09:24:30.185Z,351
2023-05-19T09:25:24.886Z,353
2023-05-19T09:26:30.337Z,356
2023-05-19T09:27:24.755Z,365
2023-05-19T09:28:25.449Z,357
2023-05-19T09:30:24.973Z,360
2023-05-19T09:31:24.752Z,359
2023-05-19T09:32:24.694Z,344
2023-05-19T09:33:24.801Z,348
2023-05-19T09:34:25.098Z,352
2023-05-19T09:35:24.820Z,350
2023-05-19T09:36:25.037Z,349
2023-05-19T09:37:25.017Z,337
2023-05-19T09:39:25.249Z,340
2023-05-19T09:40:25.014Z,333
2023-05-19T09:41:25.021Z,335
2023-05-19T09:42:24.841Z,339
2023-05-19T09:43:25.033Z,337
2023-05-19T09:44:25.245Z,336
2023-05-19T09:45:25.079Z,340
2023-05-19T09:46:25.438Z,332
2023-05-19T09:47:25.072Z,329
2023-05-19T09:48:25.204Z,340
2023-05-19T09:49:24.636Z,346
2023-05-19T09:50:39.118Z,354
2023-05-19T09:51:25.450Z,342
2023-05-19T09:52:24.872Z,332
2023-05-19T09:53:25.275Z,339
2023-05-19T09:54:24.876Z,347
2023-05-19T09:55:25.289Z,342
2023-05-19T09:56:24.824Z,349
2023-05-19T09:57:25.253Z,347
2023-05-19T09:58:25.165Z,344
2023-05-19T09:59:24.717Z,354
2023-05-19T10:00:45.011Z,351
2023-05-19T10:01:24.651Z,340
2023-05-19T10:02:25.470Z,334
2023-05-19T10:03:25.172Z,336
2023-05-19T10:04:24.741Z,329
2023-05-19T10:05:25.784Z,326
2023-05-19T10:06:25.500Z,335
2023-05-19T10:07:25.662Z,348
2023-05-19T10:08:25.522Z,345
2023-05-19T10:09:25.085Z,341
2023-05-19T10:10:25.345Z,338
2023-05-19T10:11:24.738Z,336
2023-05-19T10:12:24.837Z,339
2023-05-19T10:13:25.296Z,348
2023-05-19T10:14:25.085Z,336
2023-05-19T10:15:25.761Z,342
2023-05-19T10:17:30.420Z,328
2023-05-19T10:18:24.987Z,338
2023-05-19T10:19:24.980Z,332
2023-05-19T10:20:24.604Z,331
2023-05-19T10:21:24.665Z,332
2023-05-19T10:22:24.912Z,325
2023-05-19T10:23:25.533Z,323
2023-05-19T10:25:30.375Z,338
2023-05-19T10:26:24.705Z,344
2023-05-19T10:27:25.202Z,342
2023-05-19T10:28:24.797Z,352
2023-05-19T10:29:25.091Z,362
2023-05-19T10:30:25.036Z,350
2023-05-19T10:31:25.113Z,347
2023-05-19T10:32:24.783Z,353
2023-05-19T10:33:25.151Z,350
2023-05-19T10:34:24.801Z,345
2023-05-19T10:35:25.735Z,354
2023-05-19T10:36:25.361Z,344
2023-05-19T10:37:25.451Z,340
2023-05-19T10:38:24.841Z,335
2023-05-19T10:39:24.685Z,338
2023-05-19T10:40:25.160Z,337
2023-05-19T10:41:24.925Z,339
2023-05-19T10:43:25.312Z,353
2023-05-19T10:44:32.599Z,358
2023-05-19T10:45:25.021Z,356
2023-05-19T10:46:25.173Z,342
2023-05-19T10:47:25.392Z,349
2023-05-19T10:48:24.932Z,359
2023-05-19T10:49:25.141Z,343
2023-05-19T10:50:24.799Z,339
2023-05-19T10:51:25.074Z,336
2023-05-19T10:53:24.850Z,335
2023-05-19T10:54:25.146Z,334
2023-05-19T10:55:24.956Z,340
2023-05-19T10:56:24.591Z,326
2023-05-19T10:57:24.599Z,325
2023-05-19T10:58:24.912Z,330
2023-05-19T10:59:26.423Z,332
2023-05-19T11:00:25.415Z,346
2023-05-19T11:01:24.864Z,339
2023-05-19T11:02:25.488Z,326
2023-05-19T11:04:25.019Z,335
2023-05-19T11:05:25.281Z,328
2023-05-19T11:06:24.888Z,339
2023-05-19T11:07:24.963Z,343
2023-05-19T11:08:25.113Z,339
2023-05-19T11:09:37.965Z,331
2023-05-19T11:10:25.254Z,327
2023-05-19T11:11:24.849Z,328
2023-05-19T11:12:25.492Z,337
2023-05-19T11:13:26.177Z,336
2023-05-19T11:14:24.669Z,347
2023-05-19T11:15:25.182Z,354
2023-05-19T11:16:24.880Z,347
2023-05-19T11:17:24.725Z,342
2023-05-19T11:18:25.524Z,341
2023-05-19T11:19:25.507Z,335
2023-05-19T11:20:25.246Z,329
2023-05-19T11:21:24.887Z,325
2023-05-19T11:22:25.336Z,347
2023-05-19T11:23:24.961Z,344
2023-05-19T11:24:25.270Z,332
2023-05-19T11:25:24.871Z,337
2023-05-19T11:26:25.055Z,338
2023-05-19T11:27:24.696Z,337
2023-05-19T11:28:25.086Z,332
2023-05-19T11:29:25.192Z,337
2023-05-19T11:30:25.345Z,344
2023-05-19T11:31:24.667Z,338
2023-05-19T11:32:25.080Z,330
2023-05-19T11:33:24.434Z,333
2023-05-19T11:34:24.643Z,323
2023-05-19T11:35:24.970Z,329
2023-05-19T11:36:24.864Z,333
2023-05-19T11:37:25.096Z,334
2023-05-19T11:38:24.427Z,332
2023-05-19T11:39:24.821Z,340
2023-05-19T11:40:25.008Z,343
2023-05-19T11:41:25.117Z,351
2023-05-19T11:42:24.792Z,349
2023-05-19T11:43:25.195Z,342
2023-05-19T11:44:24.463Z,339
2023-05-19T11:45:24.905Z,342
2023-05-19T11:46:25.526Z,336
2023-05-19T11:47:25.114Z,347
2023-05-19T11:48:24.968Z,345
2023-05-19T11:49:25.355Z,347
2023-05-19T11:50:24.951Z,330
2023-05-19T11:51:24.749Z,327
2023-05-19T11:52:25.119Z,336
2023-05-19T11:53:29.733Z,332
2023-05-19T11:54:25.186Z,333
2023-05-19T11:55:25.012Z,338
2023-05-19T11:56:24.750Z,341
2023-05-19T11:57:24.955Z,340
2023-05-19T11:58:25.326Z,344
2023-05-19T11:59:24.701Z,338
2023-05-19T12:00:25.688Z,327
2023-05-19T12:01:24.930Z,341
2023-05-19T12:02:24.386Z,345
2023-05-19T12:04:24.693Z,347
2023-05-19T12:05:42.885Z,356
2023-05-19T12:06:24.944Z,351
2023-05-19T12:07:24.707Z,348
2023-05-19T12:08:24.899Z,349
2023-05-19T12:09:39.236Z,342
2023-05-19T12:10:25.109Z,347
2023-05-19T12:12:25.267Z,348
2023-05-19T12:13:39.134Z,338
2023-05-19T12:14:24.632Z,330
2023-05-19T12:15:25.338Z,337
2023-05-19T12:16:25.241Z,343
2023-05-19T12:17:25.241Z,340
2023-05-19T12:18:25.158Z,350
2023-05-19T12:19:24.795Z,337
2023-05-19T12:20:25.388Z,339
2023-05-19T12:21:24.860Z,344
2023-05-19T12:22:24.859Z,340
2023-05-19T12:23:25.009Z,322
2023-05-19T12:24:24.886Z,323
2023-05-19T12:25:24.987Z,336
2023-05-19T12:26:25.226Z,343
2023-05-19T12:27:43.481Z,335
2023-05-19T12:28:24.808Z,330
2023-05-19T12:29:25.050Z,334
2023-05-19T12:30:24.851Z,338
2023-05-19T12:31:25.439Z,340
2023-05-19T12:33:25.013Z,344
2023-05-19T12:34:25.374Z,350
2023-05-19T12:35:24.969Z,354
2023-05-19T12:36:25.238Z,352
2023-05-19T12:38:24.658Z,357
2023-05-19T12:39:24.913Z,354
2023-05-19T12:40:25.294Z,348
2023-05-19T12:41:24.623Z,343
2023-05-19T12:42:24.961Z,340
2023-05-19T12:43:25.185Z,330
2023-05-19T12:44:24.838Z,320
2023-05-19T12:46:30.442Z,328
2023-05-19T12:47:24.921Z,341
2023-05-19T12:48:24.823Z,347
2023-05-19T12:50:30.485Z,354
2023-05-19T12:51:25.278Z,345
2023-05-19T12:52:25.065Z,334
2023-05-19T12:53:25.430Z,328
2023-05-19T12:54:24.960Z,346
2023-05-19T12:55:24.978Z,350
2023-05-19T12:56:25.076Z,358
2023-05-19T12:57:24.780Z,363
2023-05-19T12:58:24.733Z,370
2023-05-19T12:59:37.274Z,360
2023-05-19T13:00:25.795Z,356
2023-05-19T13:01:24.850Z,357
2023-05-19T13:02:25.348Z,356
2023-05-19T13:03:24.982Z,346
2023-05-19T13:04:24.719Z,340
2023-05-19T13:05:25.145Z,336
2023-05-19T13:06:25.352Z,346
2023-05-19T13:07:25.018Z,351
2023-05-19T13:08:25.167Z,343
2023-05-19T13:09:24.863Z,349
2023-05-19T13:10:25.501Z,357
2023-05-19T13:12:25.237Z,356
2023-05-19T13:13:24.714Z,344
2023-05-19T13:14:24.787Z,356
2023-05-19T13:15:25.118Z,362
2023-05-19T13:16:25.210Z,363
2023-05-19T13:18:25.132Z,359
2023-05-19T13:19:26.031Z,353
2023-05-19T13:21:25.034Z,322
2023-05-19T13:22:25.293Z,337
2023-05-19T13:24:25.215Z,354
2023-05-19T13:26:24.911Z,349
2023-05-19T13:27:25.034Z,342
2023-05-19T13:28:25.266Z,352
2023-05-19T13:30:25.319Z,350
2023-05-19T13:31:24.633Z,355
2023-05-19T13:32:25.038Z,349
2023-05-19T13:33:24.991Z,347
2023-05-19T13:34:25.200Z,350
2023-05-19T13:35:25.222Z,357
2023-05-19T13:36:24.807Z,347
2023-05-19T13:37:25.405Z,348
2023-05-19T13:38:25.379Z,355
2023-05-19T13:39:25.239Z,346
2023-05-19T13:40:25.097Z,332
2023-05-19T13:41:24.683Z,331
2023-05-19T13:42:25.286Z,324
2023-05-19T13:43:24.682Z,322
2023-05-19T13:45:25.129Z,328
2023-05-19T13:46:36.476Z,323
2023-05-19T13:47:24.432Z,321
2023-05-19T13:48:24.975Z,328
2023-05-19T13:49:25.358Z,336
2023-05-19T13:51:24.881Z,333
2023-05-19T13:52:24.623Z,335
2023-05-19T13:53:24.940Z,333
2023-05-19T13:54:24.917Z,344
2023-05-19T13:55:25.343Z,353
2023-05-19T13:56:24.921Z,367
2023-05-19T13:57:25.297Z,369
2023-05-19T13:58:24.585Z,361
2023-05-19T13:59:24.834Z,355
2023-05-19T14:00:26.016Z,361
2023-05-19T14:01:24.760Z,354
2023-05-19T14:02:25.319Z,346
2023-05-19T14:03:24.985Z,334
2023-05-19T14:04:24.695Z,325
2023-05-19T14:05:25.314Z,319
2023-05-19T14:06:24.440Z,329
2023-05-19T14:07:24.907Z,331
2023-05-19T14:08:25.060Z,345
2023-05-19T14:10:25.261Z,339
2023-05-19T14:11:24.750Z,329
2023-05-19T14:12:37.184Z,339
2023-05-19T14:13:34.189Z,343
2023-05-19T14:14:24.674Z,356
2023-05-19T14:15:24.929Z,360
2023-05-19T14:16:30.108Z,358
2023-05-19T14:17:24.987Z,361
2023-05-19T14:18:29.590Z,343
2023-05-19T14:19:24.899Z,341
2023-05-19T14:20:27.853Z,340
2023-05-19T14:21:24.573Z,333
2023-05-19T14:22:25.000Z,331
2023-05-19T14:23:25.379Z,343
2023-05-19T14:24:24.843Z,349
2023-05-19T14:25:25.252Z,343
2023-05-19T14:26:24.539Z,341
2023-05-19T14:27:25.053Z,342
2023-05-19T14:28:24.778Z,340
2023-05-19T14:29:25.081Z,330
2023-05-19T14:30:25.707Z,332
2023-05-19T14:31:25.080Z,351
2023-05-19T14:32:39.350Z,355
2023-05-19T14:33:24.993Z,353
2023-05-19T14:35:24.866Z,342
2023-05-19T14:36:24.966Z,337
2023-05-19T14:37:25.190Z,334
2023-05-19T14:38:38.812Z,330
2023-05-19T14:39:25.444Z,332
2023-05-19T14:40:25.172Z,337
2023-05-19T14:41:24.520Z,342
2023-05-19T14:42:38.771Z,345
2023-05-19T14:43:25.178Z,335
2023-05-19T14:44:24.711Z,339
2023-05-19T14:45:25.165Z,342
2023-05-19T14:46:24.934Z,337
2023-05-19T14:47:26.387Z,343
2023-05-19T14:48:25.101Z,340
2023-05-19T14:49:25.157Z,357
2023-05-19T14:50:25.453Z,355
2023-05-19T14:51:25.030Z,356
2023-05-19T14:52:25.315Z,353
2023-05-19T14:54:24.831Z,340
2023-05-19T14:55:25.269Z,341
2023-05-19T14:56:25.014Z,346
2023-05-19T14:57:25.449Z,342
2023-05-19T14:58:28.288Z,338
2023-05-19T15:00:26.267Z,334
2023-05-19T15:01:25.015Z,340
2023-05-19T15:02:25.203Z,346
2023-05-19T15:03:25.291Z,342
2023-05-19T15:05:25.029Z,346
2023-05-19T15:06:25.052Z,341